Time;durP1;ratioP1;P1;durP2;ratioP2;P2;SDS_P1;SDS_P2;PMS_P1;PMS_P2;Temp;Humidity;BMP_temperature;BMP_pressure;BME280_temperature;BME280_humidity;BME280_pressure;Samples;Min_cycle;Max_cycle;Signal;HPM_P1;HPM_P2
2023/07/08 00:00:50;;;;;;;9.40;3.60;;;;;;;-128.00;-1.00;-1.00;106053;1264;1013243;-67
2023/07/08 00:03:46;;;;;;;9.90;3.40;;;;;;;-128.00;-1.00;-1.00;106078;1263;1010314;-68
2023/07/08 00:06:35;;;;;;;9.80;3.80;;;;;;;-128.00;-1.00;-1.00;106091;1264;1010883;-66
2023/07/08 00:09:25;;;;;;;7.50;3.30;;;;;;;-128.00;-1.00;-1.00;106029;1264;1012691;-67
2023/07/08 00:12:19;;;;;;;8.00;3.10;;;;;;;-128.00;-1.00;-1.00;105972;1264;1012319;-67
2023/07/08 00:15:09;;;;;;;8.70;3.20;;;;;;;-128.00;-1.00;-1.00;106040;1264;1013158;-69
2023/07/08 00:17:58;;;;;;;8.40;2.70;;;;;;;-128.00;-1.00;-1.00;106050;1264;1009478;-67
2023/07/08 00:20:51;;;;;;;7.60;2.50;;;;;;;-128.00;-1.00;-1.00;106005;1264;1011395;-66
2023/07/08 00:23:40;;;;;;;6.80;2.50;;;;;;;-128.00;-1.00;-1.00;106036;1263;1012441;-64
2023/07/08 00:26:30;;;;;;;7.90;2.40;;;;;;;-128.00;-1.00;-1.00;105929;1264;1012611;-66
2023/07/08 00:29:20;;;;;;;8.80;2.30;;;;;;;-128.00;-1.00;-1.00;106134;1261;1012363;-66
2023/07/08 00:32:14;;;;;;;8.70;2.40;;;;;;;-128.00;-1.00;-1.00;106277;1260;1010434;-65
2023/07/08 00:35:03;;;;;;;8.90;2.60;;;;;;;-128.00;-1.00;-1.00;106223;1259;1011032;-65
2023/07/08 00:38:01;;;;;;;6.60;2.40;;;;;;;-128.00;-1.00;-1.00;106342;1260;1013182;-65
2023/07/08 00:40:53;;;;;;;7.60;2.40;;;;;;;-128.00;-1.00;-1.00;106391;1258;1012269;-65
2023/07/08 00:43:43;;;;;;;6.60;2.20;;;;;;;-128.00;-1.00;-1.00;106286;1261;1012753;-65
2023/07/08 00:46:46;;;;;;;7.10;2.20;;;;;;;-128.00;-1.00;-1.00;106320;1259;1010524;-68
2023/07/08 00:49:42;;;;;;;7.60;2.50;;;;;;;-128.00;-1.00;-1.00;106319;1259;1011098;-66
2023/07/08 00:52:30;;;;;;;8.00;2.60;;;;;;;-128.00;-1.00;-1.00;106282;1259;1012680;-67
2023/07/08 00:55:18;;;;;;;7.20;2.00;;;;;;;-128.00;-1.00;-1.00;106276;1259;1011986;-66
2023/07/08 00:58:06;;;;;;;7.40;2.00;;;;;;;-128.00;-1.00;-1.00;106397;1260;1012734;-67
2023/07/08 01:00:56;;;;;;;6.10;2.30;;;;;;;-128.00;-1.00;-1.00;106333;1259;1010646;-66
2023/07/08 01:04:01;;;;;;;7.60;2.20;;;;;;;-128.00;-1.00;-1.00;106403;1261;1011031;-64
2023/07/08 01:06:57;;;;;;;7.40;2.00;;;;;;;-128.00;-1.00;-1.00;106226;1260;1012449;-64
2023/07/08 01:09:48;;;;;;;6.00;2.00;;;;;;;-128.00;-1.00;-1.00;106247;1258;1012636;-64
2023/07/08 01:12:43;;;;;;;6.20;1.70;;;;;;;-128.00;-1.00;-1.00;106239;1260;1012013;-65
2023/07/08 01:15:40;;;;;;;7.90;2.10;;;;;;;-128.00;-1.00;-1.00;106344;1257;1009544;-66
2023/07/08 01:18:28;;;;;;;7.10;2.20;;;;;;;-128.00;-1.00;-1.00;106412;1257;1010358;-65
2023/07/08 01:22:05;;;;;;;6.40;1.80;;;;;;;-128.00;-1.00;-1.00;106281;1257;1012821;-64
2023/07/08 01:24:53;;;;;;;6.60;2.20;;;;;;;-128.00;-1.00;-1.00;106288;1266;1012518;-63
2023/07/08 01:27:46;;;;;;;6.70;1.80;;;;;;;-128.00;-1.00;-1.00;106336;1257;1012860;-66
2023/07/08 01:30:35;;;;;;;6.50;2.10;;;;;;;-128.00;-1.00;-1.00;106351;1257;1010602;-65
2023/07/08 01:33:24;;;;;;;6.20;2.10;;;;;;;-128.00;-1.00;-1.00;106399;1257;1011499;-63
2023/07/08 01:36:12;;;;;;;5.90;1.70;;;;;;;-128.00;-1.00;-1.00;106355;1257;1012507;-64
2023/07/08 01:39:01;;;;;;;6.60;1.80;;;;;;;-128.00;-1.00;-1.00;106328;1257;1012117;-64
2023/07/08 01:41:48;;;;;;;7.00;2.70;;;;;;;-128.00;-1.00;-1.00;106357;1257;1013155;-65
2023/07/08 01:44:37;;;;;;;5.30;1.80;;;;;;;-128.00;-1.00;-1.00;106311;1257;1010062;-70
2023/07/08 01:47:24;;;;;;;5.80;2.00;;;;;;;-128.00;-1.00;-1.00;106250;1257;1011738;-66
2023/07/08 01:50:13;;;;;;;7.00;2.00;;;;;;;-128.00;-1.00;-1.00;106411;1257;1012564;-65
2023/07/08 01:53:10;;;;;;;6.90;1.90;;;;;;;-128.00;-1.00;-1.00;106356;1260;1011962;-65
2023/07/08 01:56:00;;;;;;;6.20;2.10;;;;;;;-128.00;-1.00;-1.00;106324;1257;1012627;-66
2023/07/08 01:58:48;;;;;;;5.60;1.70;;;;;;;-128.00;-1.00;-1.00;106377;1257;1009477;-65
2023/07/08 02:01:36;;;;;;;7.30;2.20;;;;;;;-128.00;-1.00;-1.00;106336;1257;1011134;-65
2023/07/08 02:04:26;;;;;;;7.60;2.10;;;;;;;-128.00;-1.00;-1.00;106344;1258;1013018;-64
2023/07/08 02:07:15;;;;;;;7.90;2.20;;;;;;;-128.00;-1.00;-1.00;106368;1257;1012186;-66
2023/07/08 02:10:05;;;;;;;6.70;2.20;;;;;;;-128.00;-1.00;-1.00;106311;1257;1013231;-63
2023/07/08 02:12:53;;;;;;;6.40;1.90;;;;;;;-128.00;-1.00;-1.00;106378;1257;1009868;-64
2023/07/08 02:15:41;;;;;;;6.20;1.70;;;;;;;-128.00;-1.00;-1.00;106310;1258;1011265;-67
2023/07/08 02:18:32;;;;;;;6.70;1.90;;;;;;;-128.00;-1.00;-1.00;106319;1258;1013796;-63
2023/07/08 02:21:21;;;;;;;18.60;10.10;;;;;;;-128.00;-1.00;-1.00;106320;1261;1012927;-63
2023/07/08 02:24:09;;;;;;;11.70;6.10;;;;;;;-128.00;-1.00;-1.00;106225;1259;1013076;-64
2023/07/08 02:27:01;;;;;;;7.20;2.50;;;;;;;-128.00;-1.00;-1.00;106236;1259;1009097;-65
2023/07/08 02:29:49;;;;;;;7.40;2.60;;;;;;;-128.00;-1.00;-1.00;106248;1260;1010143;-67
2023/07/08 02:32:38;;;;;;;5.80;2.00;;;;;;;-128.00;-1.00;-1.00;106281;1259;1011960;-65
2023/07/08 02:35:30;;;;;;;7.60;2.30;;;;;;;-128.00;-1.00;-1.00;106285;1258;1012869;-66
2023/07/08 02:38:19;;;;;;;6.20;1.90;;;;;;;-128.00;-1.00;-1.00;106222;1257;1012282;-70
2023/07/08 02:41:07;;;;;;;8.40;2.40;;;;;;;-128.00;-1.00;-1.00;106363;1258;1009915;-65
2023/07/08 02:43:56;;;;;;;6.00;1.80;;;;;;;-128.00;-1.00;-1.00;106289;1259;1010554;-64
2023/07/08 02:46:45;;;;;;;8.40;2.00;;;;;;;-128.00;-1.00;-1.00;106351;1258;1013350;-65
2023/07/08 02:49:34;;;;;;;5.70;1.80;;;;;;;-128.00;-1.00;-1.00;106293;1257;1012226;-65
2023/07/08 02:52:21;;;;;;;5.90;1.70;;;;;;;-128.00;-1.00;-1.00;106371;1258;1012362;-66
2023/07/08 02:55:09;;;;;;;6.70;2.10;;;;;;;-128.00;-1.00;-1.00;106316;1259;1010229;-65
2023/07/08 02:57:58;;;;;;;6.50;2.40;;;;;;;-128.00;-1.00;-1.00;106294;1258;1010645;-66
2023/07/08 03:00:55;;;;;;;6.40;2.10;;;;;;;-128.00;-1.00;-1.00;106282;1259;1012264;-64
2023/07/08 03:03:48;;;;;;;6.20;2.00;;;;;;;-128.00;-1.00;-1.00;106224;1257;1012844;-64
2023/07/08 03:06:40;;;;;;;5.40;1.60;;;;;;;-128.00;-1.00;-1.00;106275;1258;1012888;-66
2023/07/08 03:09:28;;;;;;;5.70;1.90;;;;;;;-128.00;-1.00;-1.00;106229;1259;1010179;-65
2023/07/08 03:12:16;;;;;;;5.90;1.70;;;;;;;-128.00;-1.00;-1.00;106295;1259;1010757;-65
2023/07/08 03:15:05;;;;;;;5.40;1.60;;;;;;;-128.00;-1.00;-1.00;106459;1257;1012876;-64
2023/07/08 03:17:59;;;;;;;6.80;1.90;;;;;;;-128.00;-1.00;-1.00;106307;1261;1012822;-63
2023/07/08 03:20:49;;;;;;;5.70;1.70;;;;;;;-128.00;-1.00;-1.00;106390;1257;1012446;-64
2023/07/08 03:23:37;;;;;;;6.60;1.90;;;;;;;-128.00;-1.00;-1.00;106302;1257;1009848;-64
2023/07/08 03:26:26;;;;;;;5.80;2.00;;;;;;;-128.00;-1.00;-1.00;106343;1258;1010702;-67
2023/07/08 03:29:21;;;;;;;6.00;2.00;;;;;;;-128.00;-1.00;-1.00;106320;1257;1012533;-64
2023/07/08 03:32:11;;;;;;;7.00;2.20;;;;;;;-128.00;-1.00;-1.00;106429;1259;1012140;-67
2023/07/08 03:35:01;;;;;;;6.10;2.20;;;;;;;-128.00;-1.00;-1.00;106289;1257;1012598;-66
2023/07/08 03:37:49;;;;;;;6.90;2.10;;;;;;;-128.00;-1.00;-1.00;106393;1257;1009512;-65
2023/07/08 03:40:37;;;;;;;6.30;2.10;;;;;;;-128.00;-1.00;-1.00;106384;1257;1010833;-65
2023/07/08 03:43:25;;;;;;;6.40;1.80;;;;;;;-128.00;-1.00;-1.00;106308;1257;1013519;-65
2023/07/08 03:46:16;;;;;;;6.10;1.90;;;;;;;-128.00;-1.00;-1.00;106315;1257;1012498;-64
2023/07/08 03:49:06;;;;;;;7.10;1.80;;;;;;;-128.00;-1.00;-1.00;106309;1257;1014370;-66
2023/07/08 03:51:54;;;;;;;6.70;2.40;;;;;;;-128.00;-1.00;-1.00;106280;1257;1009857;-66
2023/07/08 03:54:44;;;;;;;6.10;2.30;;;;;;;-128.00;-1.00;-1.00;106364;1257;1011167;-69
2023/07/08 03:57:33;;;;;;;9.60;2.30;;;;;;;-128.00;-1.00;-1.00;106314;1257;1013277;-70
2023/07/08 04:00:23;;;;;;;6.20;2.10;;;;;;;-128.00;-1.00;-1.00;106273;1260;1011924;-68
2023/07/08 04:03:11;;;;;;;10.70;2.20;;;;;;;-128.00;-1.00;-1.00;106461;1257;1012802;-66
2023/07/08 04:05:59;;;;;;;6.30;2.20;;;;;;;-128.00;-1.00;-1.00;106206;1257;1010202;-71
2023/07/08 04:08:49;;;;;;;6.60;2.10;;;;;;;-128.00;-1.00;-1.00;106310;1257;1010993;-71
2023/07/08 04:11:38;;;;;;;7.60;2.10;;;;;;;-128.00;-1.00;-1.00;106288;1257;1012637;-71
2023/07/08 04:14:25;;;;;;;6.40;2.40;;;;;;;-128.00;-1.00;-1.00;106314;1257;1012353;-70
2023/07/08 04:17:17;;;;;;;6.10;2.20;;;;;;;-128.00;-1.00;-1.00;106348;1257;1013161;-68
2023/07/08 04:20:06;;;;;;;7.30;2.20;;;;;;;-128.00;-1.00;-1.00;106383;1257;1009824;-73
2023/07/08 04:22:54;;;;;;;7.10;2.40;;;;;;;-128.00;-1.00;-1.00;106276;1257;1011042;-69
2023/07/08 04:25:43;;;;;;;7.30;2.00;;;;;;;-128.00;-1.00;-1.00;106270;1257;1013115;-73
2023/07/08 04:28:31;;;;;;;6.00;2.10;;;;;;;-128.00;-1.00;-1.00;106317;1257;1012786;-70
2023/07/08 04:31:20;;;;;;;6.30;2.20;;;;;;;-128.00;-1.00;-1.00;106350;1257;1012576;-73
2023/07/08 04:34:10;;;;;;;6.70;2.00;;;;;;;-128.00;-1.00;-1.00;106326;1257;1009769;-70
2023/07/08 04:36:57;;;;;;;6.20;2.30;;;;;;;-128.00;-1.00;-1.00;106273;1257;1010769;-75
2023/07/08 04:39:46;;;;;;;7.10;2.30;;;;;;;-128.00;-1.00;-1.00;106283;1257;1013026;-70
2023/07/08 04:42:34;;;;;;;5.80;2.20;;;;;;;-128.00;-1.00;-1.00;106412;1257;1011797;-69
2023/07/08 04:45:26;;;;;;;6.80;2.60;;;;;;;-128.00;-1.00;-1.00;106300;1257;1012448;-71
2023/07/08 04:48:15;;;;;;;7.50;2.40;;;;;;;-128.00;-1.00;-1.00;106359;1258;1009653;-68
2023/07/08 04:51:03;;;;;;;9.50;2.60;;;;;;;-128.00;-1.00;-1.00;106408;1256;1010550;-68
2023/07/08 04:53:50;;;;;;;7.40;2.30;;;;;;;-128.00;-1.00;-1.00;106447;1256;1012959;-74
2023/07/08 04:56:48;;;;;;;6.60;2.30;;;;;;;-128.00;-1.00;-1.00;106413;1256;1012690;-72
2023/07/08 04:59:36;;;;;;;7.20;2.40;;;;;;;-128.00;-1.00;-1.00;106308;1257;1012464;-72
2023/07/08 05:02:24;;;;;;;7.60;2.40;;;;;;;-128.00;-1.00;-1.00;106352;1257;1009997;-72
2023/07/08 05:05:11;;;;;;;7.00;2.20;;;;;;;-128.00;-1.00;-1.00;106410;1257;1011017;-73
2023/07/08 05:08:00;;;;;;;6.20;1.90;;;;;;;-128.00;-1.00;-1.00;106408;1256;1012951;-73
2023/07/08 05:10:48;;;;;;;6.80;1.80;;;;;;;-128.00;-1.00;-1.00;106396;1260;1012454;-76
2023/07/08 05:13:36;;;;;;;6.50;2.10;;;;;;;-128.00;-1.00;-1.00;106482;1256;1012929;-71
2023/07/08 05:16:25;;;;;;;6.50;1.90;;;;;;;-128.00;-1.00;-1.00;106458;1257;1010223;-73
2023/07/08 05:19:15;;;;;;;6.20;2.30;;;;;;;-128.00;-1.00;-1.00;106318;1256;1010803;-73
2023/07/08 05:22:03;;;;;;;6.10;1.50;;;;;;;-128.00;-1.00;-1.00;106478;1256;1012295;-68
2023/07/08 05:24:55;;;;;;;6.50;1.80;;;;;;;-128.00;-1.00;-1.00;106415;1259;1011759;-70
2023/07/08 05:27:43;;;;;;;7.40;1.70;;;;;;;-128.00;-1.00;-1.00;106352;1257;1012011;-74
2023/07/08 05:30:33;;;;;;;5.30;1.60;;;;;;;-128.00;-1.00;-1.00;106320;1257;1010386;-72
2023/07/08 05:33:25;;;;;;;5.80;1.70;;;;;;;-128.00;-1.00;-1.00;106462;1257;1011250;-72
2023/07/08 05:36:15;;;;;;;6.00;1.80;;;;;;;-128.00;-1.00;-1.00;106232;1263;1012549;-69
2023/07/08 05:39:03;;;;;;;5.30;1.70;;;;;;;-128.00;-1.00;-1.00;106295;1257;1012280;-71
2023/07/08 05:41:53;;;;;;;6.20;1.50;;;;;;;-128.00;-1.00;-1.00;106396;1257;1012343;-72
2023/07/08 05:44:43;;;;;;;7.10;1.80;;;;;;;-128.00;-1.00;-1.00;106305;1257;1009672;-70
2023/07/08 05:47:33;;;;;;;7.90;2.20;;;;;;;-128.00;-1.00;-1.00;106392;1257;1010433;-73
2023/07/08 05:50:26;;;;;;;7.00;1.90;;;;;;;-128.00;-1.00;-1.00;106355;1257;1012101;-71
2023/07/08 05:53:18;;;;;;;6.00;1.60;;;;;;;-128.00;-1.00;-1.00;106330;1262;1012366;-69
2023/07/08 05:56:06;;;;;;;5.70;1.70;;;;;;;-128.00;-1.00;-1.00;106442;1256;1013510;-71
2023/07/08 05:58:54;;;;;;;5.60;1.80;;;;;;;-128.00;-1.00;-1.00;106370;1257;1010242;-70
2023/07/08 06:01:42;;;;;;;6.10;1.60;;;;;;;-128.00;-1.00;-1.00;106354;1257;1010371;-71
2023/07/08 06:04:30;;;;;;;8.10;1.90;;;;;;;-128.00;-1.00;-1.00;106381;1256;1012687;-69
2023/07/08 06:07:19;;;;;;;6.90;2.10;;;;;;;-128.00;-1.00;-1.00;106461;1256;1012523;-70
2023/07/08 06:10:10;;;;;;;7.30;2.00;;;;;;;-128.00;-1.00;-1.00;106407;1256;1013169;-69
2023/07/08 06:12:59;;;;;;;6.30;2.20;;;;;;;-128.00;-1.00;-1.00;106301;1257;1010225;-69
2023/07/08 06:15:47;;;;;;;7.90;2.10;;;;;;;-128.00;-1.00;-1.00;106332;1257;1010499;-72
2023/07/08 06:18:36;;;;;;;6.00;2.20;;;;;;;-128.00;-1.00;-1.00;106306;1257;1011931;-70
2023/07/08 06:21:24;;;;;;;6.70;2.10;;;;;;;-128.00;-1.00;-1.00;106372;1257;1012997;-71
2023/07/08 06:24:12;;;;;;;8.40;2.10;;;;;;;-128.00;-1.00;-1.00;106302;1257;1013485;-74
2023/07/08 06:27:05;;;;;;;6.80;2.00;;;;;;;-128.00;-1.00;-1.00;106439;1257;1009715;-74
2023/07/08 06:29:56;;;;;;;6.20;2.00;;;;;;;-128.00;-1.00;-1.00;106418;1257;1011396;-72
2023/07/08 06:32:44;;;;;;;7.10;2.10;;;;;;;-128.00;-1.00;-1.00;106260;1257;1012640;-72
2023/07/08 06:35:32;;;;;;;6.60;2.00;;;;;;;-128.00;-1.00;-1.00;106391;1257;1012402;-69
2023/07/08 06:38:20;;;;;;;9.40;2.40;;;;;;;-128.00;-1.00;-1.00;106319;1257;1012574;-70
2023/07/08 06:41:08;;;;;;;8.20;2.20;;;;;;;-128.00;-1.00;-1.00;106411;1257;1009929;-71
2023/07/08 06:43:57;;;;;;;8.20;2.20;;;;;;;-128.00;-1.00;-1.00;106359;1257;1011581;-68
2023/07/08 06:46:50;;;;;;;6.90;2.20;;;;;;;-128.00;-1.00;-1.00;106233;1257;1012104;-70
2023/07/08 06:49:38;;;;;;;7.70;2.00;;;;;;;-128.00;-1.00;-1.00;106338;1261;1012519;-71
2023/07/08 06:52:26;;;;;;;6.60;2.20;;;;;;;-128.00;-1.00;-1.00;106364;1257;1012835;-70
2023/07/08 06:55:14;;;;;;;6.80;2.20;;;;;;;-128.00;-1.00;-1.00;106345;1257;1009942;-70
2023/07/08 06:58:02;;;;;;;7.10;2.10;;;;;;;-128.00;-1.00;-1.00;106319;1257;1010409;-72
2023/07/08 07:00:50;;;;;;;7.40;1.80;;;;;;;-128.00;-1.00;-1.00;106294;1257;1013207;-69
2023/07/08 07:03:39;;;;;;;7.60;2.20;;;;;;;-128.00;-1.00;-1.00;106295;1257;1012337;-70
2023/07/08 07:06:27;;;;;;;6.40;1.90;;;;;;;-128.00;-1.00;-1.00;106299;1257;1012733;-70
2023/07/08 07:09:15;;;;;;;7.20;2.10;;;;;;;-128.00;-1.00;-1.00;106376;1257;1009396;-70
2023/07/08 07:12:06;;;;;;;7.90;2.30;;;;;;;-128.00;-1.00;-1.00;106440;1257;1010285;-75
2023/07/08 07:14:54;;;;;;;7.40;1.90;;;;;;;-128.00;-1.00;-1.00;106376;1257;1013629;-68
2023/07/08 07:17:42;;;;;;;7.20;1.80;;;;;;;-128.00;-1.00;-1.00;106296;1260;1012414;-69
2023/07/08 07:20:31;;;;;;;8.70;2.10;;;;;;;-128.00;-1.00;-1.00;106341;1257;1012181;-70
2023/07/08 07:23:20;;;;;;;8.30;2.20;;;;;;;-128.00;-1.00;-1.00;106266;1257;1010544;-73
2023/07/08 07:26:08;;;;;;;6.80;2.00;;;;;;;-128.00;-1.00;-1.00;106338;1257;1011150;-72
2023/07/08 07:28:56;;;;;;;6.10;1.60;;;;;;;-128.00;-1.00;-1.00;106271;1257;1012483;-72
2023/07/08 07:31:43;;;;;;;7.90;1.80;;;;;;;-128.00;-1.00;-1.00;106254;1257;1012439;-71
2023/07/08 07:34:32;;;;;;;6.50;1.80;;;;;;;-128.00;-1.00;-1.00;106344;1257;1012531;-73
2023/07/08 07:37:21;;;;;;;5.40;1.60;;;;;;;-128.00;-1.00;-1.00;106341;1257;1010371;-70
2023/07/08 07:40:13;;;;;;;6.30;2.00;;;;;;;-128.00;-1.00;-1.00;106323;1257;1011152;-70
2023/07/08 07:43:02;;;;;;;6.60;1.70;;;;;;;-128.00;-1.00;-1.00;106346;1257;1012873;-72
2023/07/08 07:45:53;;;;;;;6.30;1.40;;;;;;;-128.00;-1.00;-1.00;106407;1257;1012515;-72
2023/07/08 07:48:42;;;;;;;6.50;1.70;;;;;;;-128.00;-1.00;-1.00;106256;1257;1013434;-70
2023/07/08 07:51:30;;;;;;;6.10;1.80;;;;;;;-128.00;-1.00;-1.00;106358;1257;1009767;-72
2023/07/08 07:54:18;;;;;;;6.80;1.90;;;;;;;-128.00;-1.00;-1.00;106483;1257;1010919;-71
2023/07/08 07:57:06;;;;;;;6.20;1.50;;;;;;;-128.00;-1.00;-1.00;106334;1257;1012196;-69
2023/07/08 07:59:54;;;;;;;6.30;1.80;;;;;;;-29.06;11.92;60258.63;107836;1257;1012233;-72
2023/07/08 08:02:44;;;;;;;5.90;1.50;;;;;;;36.96;20.26;100428.56;109048;1257;73737;-74
2023/07/08 08:05:33;;;;;;;7.10;1.70;;;;;;;37.01;19.96;100421.26;108985;1257;57377;-73
2023/07/08 08:08:22;;;;;;;6.30;1.70;;;;;;;37.09;20.38;100423.64;108941;1257;59086;-72
2023/07/08 08:11:11;;;;;;;6.50;1.50;;;;;;;37.16;20.45;100424.42;109047;1258;74442;-71
2023/07/08 08:14:00;;;;;;;7.00;1.70;;;;;;;37.37;20.59;100427.37;109079;1257;66367;-68
2023/07/08 08:16:50;;;;;;;7.70;1.60;;;;;;;37.61;19.92;100430.79;108979;1257;73259;-71
2023/07/08 08:19:38;;;;;;;6.10;1.50;;;;;;;37.88;19.48;100428.44;108983;1257;57316;-71
2023/07/08 08:22:29;;;;;;;5.80;1.50;;;;;;;37.94;19.39;100431.70;109077;1257;60102;-69
2023/07/08 08:25:19;;;;;;;5.70;1.40;;;;;;;38.06;19.16;100430.07;108947;1257;71472;-73
2023/07/08 08:28:07;;;;;;;7.70;1.60;;;;;;;38.31;18.91;100430.29;109078;1257;68653;-71
2023/07/08 08:30:57;;;;;;;5.80;1.50;;;;;;;38.40;18.93;100436.97;109028;1257;72735;-72
2023/07/08 08:33:45;;;;;;;5.60;1.30;;;;;;;37.77;19.23;100442.41;108907;1257;58063;-74
2023/07/08 08:36:34;;;;;;;7.30;1.90;;;;;;;37.53;19.45;100437.08;109181;1257;60220;-71
2023/07/08 08:39:24;;;;;;;7.00;1.80;;;;;;;37.53;19.72;100436.92;109060;1257;73080;-75
2023/07/08 08:42:25;;;;;;;7.20;1.80;;;;;;;37.60;19.51;100436.85;109067;1257;66837;-74
2023/07/08 08:45:20;;;;;;;5.90;1.60;;;;;;;37.56;19.67;100437.88;108956;1257;72489;-74
2023/07/08 08:48:15;;;;;;;7.80;1.80;;;;;;;37.16;19.35;100434.85;109042;1257;57757;-76
2023/07/08 08:51:13;;;;;;;7.10;1.70;;;;;;;37.25;19.65;100433.73;108965;1257;59370;-70
2023/07/08 08:54:02;;;;;;;7.10;1.70;;;;;;;37.31;19.54;100433.98;108965;1258;72822;-73
2023/07/08 08:57:40;;;;;;;6.90;1.80;;;;;;;37.55;19.71;100435.67;109029;1257;68365;-70
2023/07/08 09:01:01;;;;;;;7.40;1.80;;;;;;;37.67;19.63;100442.45;109099;1256;72516;-69
2023/07/08 09:04:05;;;;;;;7.20;1.90;;;;;;;37.74;19.30;100433.17;109076;1256;57370;-74
2023/07/08 09:07:02;;;;;;;7.10;1.70;;;;;;;38.12;18.96;100436.27;109110;1256;59082;-71
2023/07/08 09:10:03;;;;;;;7.10;1.80;;;;;;;38.35;18.50;100434.88;109132;1256;73135;-72
2023/07/08 09:12:55;;;;;;;6.40;1.80;;;;;;;38.51;18.26;100439.94;109180;1256;67956;-70
2023/07/08 09:15:57;;;;;;;7.60;1.40;;;;;;;38.59;18.10;100434.16;109033;1257;71874;-71
2023/07/08 09:19:14;;;;;;;7.00;1.60;;;;;;;38.66;17.88;100433.80;109156;1257;57923;-70
2023/07/08 09:22:12;;;;;;;5.90;1.70;;;;;;;39.02;17.93;100427.79;109110;1257;58871;-73
2023/07/08 09:25:37;;;;;;;7.10;1.50;;;;;;;38.99;18.07;100428.10;109208;1257;73192;-70
2023/07/08 09:28:44;;;;;;;6.80;1.60;;;;;;;38.84;18.33;100422.00;109024;1257;67815;-73
2023/07/08 09:31:39;;;;;;;6.10;1.80;;;;;;;38.90;18.55;100422.69;109016;1257;73053;-70
2023/07/08 09:34:54;;;;;;;6.20;1.80;;;;;;;37.72;18.91;100428.23;109043;1257;57688;-71
2023/07/08 09:37:47;;;;;;;7.10;2.10;;;;;;;37.10;19.25;100425.07;109033;1256;60074;-71
2023/07/08 09:40:35;;;;;;;7.40;2.00;;;;;;;36.43;20.25;100426.27;109115;1256;72848;-71
2023/07/08 09:43:24;;;;;;;6.30;1.60;;;;;;;36.25;20.44;100431.48;109061;1257;67812;-72
2023/07/08 09:46:13;;;;;;;7.60;1.80;;;;;;;36.38;20.85;100432.93;109074;1256;72572;-71
2023/07/08 09:49:18;;;;;;;8.70;2.00;;;;;;;36.22;20.89;100436.24;109077;1256;57683;-72
2023/07/08 09:52:06;;;;;;;7.20;2.10;;;;;;;34.92;21.77;100432.83;109100;1259;58817;-73
2023/07/08 09:54:55;;;;;;;8.50;2.10;;;;;;;33.72;23.05;100434.73;109260;1256;73392;-71
2023/07/08 09:57:46;;;;;;;8.00;2.20;;;;;;;33.16;23.47;100428.48;109211;1256;66662;-70
2023/07/08 10:00:41;;;;;;;7.70;2.00;;;;;;;34.06;22.96;100424.95;108994;1256;70823;-72
2023/07/08 10:03:33;;;;;;;6.70;1.90;;;;;;;34.75;21.74;100427.54;109084;1256;57360;-72
2023/07/08 10:06:29;;;;;;;7.50;2.10;;;;;;;35.30;21.43;100424.55;109069;1256;58979;-74
2023/07/08 10:09:25;;;;;;;7.00;1.80;;;;;;;35.56;21.15;100427.70;108997;1256;74770;-74
2023/07/08 10:12:13;;;;;;;8.00;2.10;;;;;;;34.62;22.11;100426.42;109040;1256;67637;-72
2023/07/08 10:15:31;;;;;;;7.40;1.80;;;;;;;33.71;23.08;100429.61;109110;1256;72667;-70
2023/07/08 10:18:30;;;;;;;6.90;2.20;;;;;;;33.97;23.19;100424.95;109056;1258;57730;-69
2023/07/08 10:21:36;;;;;;;6.20;1.90;;;;;;;35.12;22.51;100426.28;109191;1256;58926;-73
2023/07/08 10:25:16;;;;;;;8.10;1.90;;;;;;;35.89;22.75;100423.92;109167;1256;73140;-70
2023/07/08 10:28:44;;;;;;;7.30;1.90;;;;;;;35.42;23.46;100428.70;108678;1264;66423;-69
2023/07/08 10:32:07;;;;;;;7.00;2.00;;;;;;;34.19;25.35;100428.16;108682;1263;70928;-70
2023/07/08 10:35:25;;;;;;;7.70;2.30;;;;;;;33.14;26.56;100427.20;108675;1263;58941;-70
2023/07/08 10:38:21;;;;;;;7.60;2.10;;;;;;;33.74;26.41;100425.11;108679;1264;60445;-70
2023/07/08 10:41:57;;;;;;;7.60;2.00;;;;;;;34.03;26.01;100427.23;108737;1264;73594;-70
2023/07/08 10:45:20;;;;;;;7.50;2.00;;;;;;;33.48;26.52;100427.95;108477;1270;68687;-71
2023/07/08 10:48:29;;;;;;;6.10;2.00;;;;;;;34.21;26.01;100426.23;108409;1270;72335;-73
2023/07/08 10:51:53;;;;;;;6.80;1.70;;;;;;;35.16;25.24;100421.15;108341;1270;57327;-73
2023/07/08 10:55:14;;;;;;;6.00;1.70;;;;;;;35.81;24.15;100425.70;107611;1274;58765;-71
2023/07/08 10:58:48;;;;;;;6.70;1.70;;;;;;;36.44;23.25;100421.50;107759;1274;73196;-71
2023/07/08 11:01:48;;;;;;;6.90;1.90;;;;;;;36.62;22.69;100421.79;107678;1274;67664;-68
2023/07/08 11:05:11;;;;;;;7.00;1.70;;;;;;;36.28;22.64;100421.10;107928;1269;74102;-73
2023/07/08 11:08:16;;;;;;;6.10;1.40;;;;;;;36.25;22.69;100422.23;108205;1269;57419;-70
2023/07/08 11:11:29;;;;;;;5.30;1.40;;;;;;;36.20;22.94;100424.23;108478;1269;58902;-69
2023/07/08 11:14:45;;;;;;;5.10;1.20;;;;;;;35.91;22.84;100425.09;108275;1270;73095;-70
2023/07/08 11:17:49;;;;;;;5.80;1.40;;;;;;;35.44;23.25;100414.00;108144;1270;68109;-71
2023/07/08 11:20:43;;;;;;;5.00;1.30;;;;;;;34.88;23.49;100410.92;108342;1264;72809;-72
2023/07/08 11:23:48;;;;;;;6.80;1.30;;;;;;;34.46;23.74;100407.77;108676;1264;57436;-68
2023/07/08 11:27:08;;;;;;;6.80;1.30;;;;;;;34.00;24.04;100407.86;108668;1266;60830;-74
2023/07/08 11:30:15;;;;;;;7.00;1.10;;;;;;;33.56;24.90;100405.40;108730;1264;71663;-72
2023/07/08 11:33:09;;;;;;;7.30;1.30;;;;;;;33.12;25.30;100407.27;109208;1256;67698;-70
2023/07/08 11:36:02;;;;;;;6.70;1.20;;;;;;;32.78;25.89;100406.87;109074;1256;72347;-71
2023/07/08 11:38:55;;;;;;;6.20;1.40;;;;;;;32.34;26.34;100400.88;109113;1256;57374;-70
2023/07/08 11:41:44;;;;;;;6.20;1.20;;;;;;;31.86;26.76;100405.05;109113;1256;59128;-73
2023/07/08 11:44:34;;;;;;;5.80;1.10;;;;;;;31.26;27.49;100406.75;109094;1256;71320;-69
2023/07/08 11:47:47;;;;;;;5.80;1.20;;;;;;;30.50;28.59;100406.23;109237;1261;66608;-70
2023/07/08 11:50:42;;;;;;;9.30;3.80;;;;;;;29.75;29.64;100409.59;109051;1258;72428;-70
2023/07/08 11:53:30;;;;;;;5.40;1.70;;;;;;;29.12;31.10;100411.88;109029;1260;58691;-70
2023/07/08 11:56:22;;;;;;;5.70;1.30;;;;;;;28.48;31.82;100410.70;109131;1257;62032;-70
2023/07/08 11:59:20;;;;;;;7.70;1.50;;;;;;;27.93;33.46;100417.87;109085;1257;73651;-70
2023/07/08 12:02:16;;;;;;;5.70;1.50;;;;;;;27.49;34.40;100429.14;108994;1257;67967;-68
2023/07/08 12:05:14;;;;;;;6.00;1.50;;;;;;;27.24;35.21;100433.90;108947;1259;71438;-68
2023/07/08 12:08:13;;;;;;;6.30;1.60;;;;;;;27.13;34.99;100432.55;109071;1258;57799;-70
2023/07/08 12:11:02;;;;;;;4.50;1.20;;;;;;;26.97;35.03;100438.75;108940;1256;60471;-71
2023/07/08 12:13:50;;;;;;;5.80;1.50;;;;;;;26.83;35.55;100437.73;109006;1257;73233;-69
2023/07/08 12:16:39;;;;;;;6.30;1.40;;;;;;;26.72;36.44;100440.42;109103;1257;68392;-71
2023/07/08 12:19:31;;;;;;;5.90;1.50;;;;;;;26.58;36.04;100435.96;109107;1257;72621;-72
2023/07/08 12:22:22;;;;;;;6.80;1.40;;;;;;;26.40;36.71;100430.77;109166;1257;57268;-75
2023/07/08 12:25:16;;;;;;;5.30;1.40;;;;;;;26.25;37.09;100432.70;109055;1257;60078;-71
2023/07/08 12:28:04;;;;;;;6.40;1.50;;;;;;;26.08;37.46;100432.59;108873;1257;271010;-70
2023/07/08 12:30:57;;;;;;;6.10;1.60;;;;;;;25.91;37.75;100429.39;109094;1257;68934;-71
2023/07/08 12:33:46;;;;;;;7.60;1.70;;;;;;;25.67;38.75;100423.80;109047;1258;72642;-73
2023/07/08 12:36:34;;;;;;;5.00;1.50;;;;;;;25.47;39.05;100429.11;109108;1258;57688;-71
2023/07/08 12:39:23;;;;;;;6.70;1.60;;;;;;;25.22;39.43;100431.25;109089;1257;60367;-71
2023/07/08 12:42:11;;;;;;;5.70;1.80;;;;;;;24.98;40.07;100435.88;109153;1257;72032;-70
2023/07/08 12:45:00;;;;;;;10.10;1.30;;;;;;;24.74;39.49;100435.42;109058;1256;66650;-74
2023/07/08 12:47:49;;;;;;;6.70;1.50;;;;;;;24.58;40.33;100430.60;109107;1257;71647;-72
2023/07/08 12:50:39;;;;;;;5.70;1.30;;;;;;;24.53;40.58;100428.98;109014;1256;57866;-72
2023/07/08 12:53:27;;;;;;;6.60;1.60;;;;;;;24.48;41.19;100428.72;109079;1256;59237;-72
2023/07/08 12:56:18;;;;;;;6.30;1.40;;;;;;;24.40;41.15;100430.94;109135;1256;73233;-70
2023/07/08 12:59:20;;;;;;;6.70;1.60;;;;;;;24.40;40.98;100429.93;109217;1256;68794;-69
2023/07/08 13:02:19;;;;;;;6.30;1.60;;;;;;;24.43;40.86;100433.33;109099;1260;72410;-70
2023/07/08 13:05:09;;;;;;;7.10;2.00;;;;;;;24.38;41.14;100429.39;109005;1256;57303;-71
2023/07/08 13:07:58;;;;;;;6.30;1.60;;;;;;;24.27;41.41;100428.15;109237;1256;59248;-72
2023/07/08 13:10:47;;;;;;;8.50;1.90;;;;;;;24.10;41.65;100423.38;108930;1256;73390;-71
2023/07/08 13:13:48;;;;;;;8.30;1.90;;;;;;;24.09;42.29;100426.79;109220;1256;68141;-73
2023/07/08 13:16:38;;;;;;;14.50;7.70;;;;;;;24.03;42.00;100426.21;109018;1256;73645;-70